Time;durP1;ratioP1;P1;durP2;ratioP2;P2;SDS_P1;SDS_P2;PMS_P1;PMS_P2;Temp;Humidity;BMP_temperature;BMP_pressure;BME280_temperature;BME280_humidity;BME280_pressure;Samples;Min_cycle;Max_cycle;Signal;HPM_P1;HPM_P2
2021/05/15 00:00:53;;;;;;;5.13;3.22;;;;;;;;;;5027551;28;20030;-77
2021/05/15 00:03:19;;;;;;;4.80;2.78;;;;;;;;;;5023231;28;20026;-77
2021/05/15 00:05:45;;;;;;;5.10;2.90;;;;;;;;;;5022151;28;20033;-77
2021/05/15 00:08:12;;;;;;;7.28;2.75;;;;;;;;;;5021528;28;20022;-79
2021/05/15 00:10:38;;;;;;;4.82;2.60;;;;;;;;;;5026373;28;20106;-75
2021/05/15 00:13:04;;;;;;;3.72;2.47;;;;;;;;;;5023379;28;20515;-77
2021/05/15 00:15:30;;;;;;;8.43;3.45;;;;;;;;;;5029616;28;20010;-78
2021/05/15 00:17:56;;;;;;;8.50;2.90;;;;;;;;;;5025531;28;20030;-78
2021/05/15 00:20:23;;;;;;;8.27;2.97;;;;;;;;;;5033394;28;20030;-77
2021/05/15 00:22:49;;;;;;;3.38;2.40;;;;;;;;;;5022596;28;20045;-78
2021/05/15 00:25:16;;;;;;;6.30;2.40;;;;;;;;;;5025993;28;20058;-77
2021/05/15 00:27:43;;;;;;;7.85;3.05;;;;;;;;;;5022359;28;20018;-78
2021/05/15 00:30:10;;;;;;;5.93;3.10;;;;;;;;;;5034722;28;20018;-75
2021/05/15 00:32:36;;;;;;;6.50;2.47;;;;;;;;;;5034640;28;20337;-78
2021/05/15 00:35:03;;;;;;;4.85;2.47;;;;;;;;;;5024237;28;20033;-77
2021/05/15 00:37:29;;;;;;;6.45;2.63;;;;;;;;;;5018967;28;20041;-77
2021/05/15 00:39:56;;;;;;;7.10;2.67;;;;;;;;;;5008637;28;20364;-78
2021/05/15 00:42:22;;;;;;;7.03;2.67;;;;;;;;;;5011716;28;20488;-77
2021/05/15 00:44:48;;;;;;;3.15;2.30;;;;;;;;;;5021107;28;20431;-77
2021/05/15 00:47:14;;;;;;;4.53;2.42;;;;;;;;;;5027411;28;20487;-76
2021/05/15 00:49:41;;;;;;;3.83;2.30;;;;;;;;;;5022521;28;20069;-77
2021/05/15 00:52:07;;;;;;;5.75;2.53;;;;;;;;;;5029772;28;20021;-76
2021/05/15 00:54:36;;;;;;;6.60;2.60;;;;;;;;;;5021522;28;20022;-77
2021/05/15 00:57:05;;;;;;;4.47;2.55;;;;;;;;;;5032670;28;20034;-76
2021/05/15 00:59:31;;;;;;;4.03;2.40;;;;;;;;;;5019025;28;20075;-77
2021/05/15 01:01:57;;;;;;;4.53;2.35;;;;;;;;;;5017723;28;20025;-78
2021/05/15 01:04:23;;;;;;;4.43;2.50;;;;;;;;;;5020224;28;20048;-79
2021/05/15 01:06:50;;;;;;;5.32;2.55;;;;;;;;;;5016694;28;20029;-78
2021/05/15 01:09:16;;;;;;;3.10;2.22;;;;;;;;;;5020978;28;20062;-76
2021/05/15 01:11:42;;;;;;;5.03;2.30;;;;;;;;;;5023822;28;20426;-77
2021/05/15 01:14:08;;;;;;;3.95;2.20;;;;;;;;;;5012061;28;20089;-77
2021/05/15 01:16:35;;;;;;;3.67;2.30;;;;;;;;;;5027558;28;20029;-78
2021/05/15 01:19:01;;;;;;;2.53;2.08;;;;;;;;;;5024242;28;20038;-74
2021/05/15 01:21:27;;;;;;;4.40;2.20;;;;;;;;;;5024155;28;20037;-77
2021/05/15 01:23:56;;;;;;;4.40;2.40;;;;;;;;;;5014670;28;20491;-77
2021/05/15 01:26:23;;;;;;;4.70;2.30;;;;;;;;;;5030204;28;20038;-78
2021/05/15 01:28:56;;;;;;;3.97;1.98;;;;;;;;;;5029680;28;20057;-78
2021/05/15 01:31:23;;;;;;;3.58;2.20;;;;;;;;;;5026519;28;20014;-77
2021/05/15 01:33:49;;;;;;;3.92;2.28;;;;;;;;;;5018666;28;20050;-77
2021/05/15 01:36:16;;;;;;;4.40;1.98;;;;;;;;;;5012103;28;20314;-76
2021/05/15 01:38:42;;;;;;;4.97;2.17;;;;;;;;;;5013735;28;20041;-77
2021/05/15 01:41:09;;;;;;;3.17;2.00;;;;;;;;;;5020716;28;20038;-76
2021/05/15 01:43:57;;;;;;;5.90;2.30;;;;;;;;;;5024919;28;20029;-76
2021/05/15 01:46:27;;;;;;;2.22;1.63;;;;;;;;;;4995710;28;20015;-78
2021/05/15 01:48:53;;;;;;;3.17;2.08;;;;;;;;;;4989591;28;20109;-75
2021/05/15 01:51:19;;;;;;;2.55;1.77;;;;;;;;;;4989835;28;20027;-77
2021/05/15 01:53:48;;;;;;;6.25;1.92;;;;;;;;;;4988916;28;20039;-76
2021/05/15 01:56:14;;;;;;;1.75;1.52;;;;;;;;;;4988915;28;20516;-76
2021/05/15 01:58:41;;;;;;;3.05;1.75;;;;;;;;;;4990495;28;20055;-78
2021/05/15 02:01:07;;;;;;;3.45;1.80;;;;;;;;;;4989990;28;20584;-77
2021/05/15 02:03:34;;;;;;;2.55;1.88;;;;;;;;;;4989098;28;20085;-78
2021/05/15 02:06:00;;;;;;;3.05;1.58;;;;;;;;;;4988298;28;20047;-77
2021/05/15 02:08:26;;;;;;;2.13;1.45;;;;;;;;;;4983963;28;20027;-78
2021/05/15 02:10:56;;;;;;;4.53;1.85;;;;;;;;;;4990990;28;20057;-78
2021/05/15 02:13:25;;;;;;;4.38;2.00;;;;;;;;;;4981845;28;20099;-78
2021/05/15 02:15:51;;;;;;;2.85;1.90;;;;;;;;;;4979092;28;20042;-77
2021/05/15 02:18:17;;;;;;;5.32;1.95;;;;;;;;;;4994727;28;20045;-77
2021/05/15 02:20:44;;;;;;;3.70;2.25;;;;;;;;;;4995881;28;20027;-78
2021/05/15 02:23:11;;;;;;;4.47;2.25;;;;;;;;;;4985294;28;20090;-75
2021/05/15 02:25:37;;;;;;;3.83;1.98;;;;;;;;;;4965616;28;20432;-75
2021/05/15 02:28:03;;;;;;;5.25;2.17;;;;;;;;;;4976739;28;20129;-75
2021/05/15 02:30:30;;;;;;;5.43;1.85;;;;;;;;;;4991259;28;20026;-77
2021/05/15 02:32:56;;;;;;;3.13;2.30;;;;;;;;;;4991249;28;20144;-77
2021/05/15 02:35:22;;;;;;;4.20;2.05;;;;;;;;;;4990865;28;20031;-76
2021/05/15 02:37:49;;;;;;;3.47;1.83;;;;;;;;;;5012675;28;20038;-75
2021/05/15 02:40:15;;;;;;;2.20;1.80;;;;;;;;;;5017834;28;20018;-78
2021/05/15 02:42:42;;;;;;;5.00;1.80;;;333.50;2329.60;;;;;;5023355;28;20010;-77
2021/05/15 02:45:10;;;;;;;2.58;2.03;;;333.50;2329.60;;;;;;5027917;28;20026;-75
2021/05/15 02:47:37;;;;;;;2.75;1.88;;;333.50;2329.60;;;;;;5029526;28;20034;-77
2021/05/15 02:50:04;;;;;;;3.30;2.10;;;333.50;2329.60;;;;;;5018139;28;20038;-77
2021/05/15 02:52:30;;;;;;;3.97;2.20;;;333.50;2329.60;;;;;;5031135;28;20376;-78
2021/05/15 02:54:56;;;;;;;5.07;2.63;;;333.50;2329.60;;;;;;5024805;28;20022;-77
2021/05/15 02:57:22;;;;;;;5.28;2.55;;;333.50;2329.60;;;;;;5027293;28;20447;-75
2021/05/15 02:59:47;;;;;;;4.22;2.30;;;333.50;2329.60;;;;;;5019454;28;20133;-78
2021/05/15 03:02:13;;;;;;;6.03;2.42;;;333.50;2329.60;;;;;;5035177;28;20053;-78
2021/05/15 03:04:39;;;;;;;4.75;2.30;;;333.50;2329.60;;;;;;5031575;28;20057;-75
2021/05/15 03:07:05;;;;;;;3.47;2.10;;;333.50;2329.60;;;;;;5020580;28;20035;-76
2021/05/15 03:09:30;;;;;;;4.63;2.45;;;333.50;2329.60;;;;;;5025231;28;20160;-78
2021/05/15 03:11:56;;;;;;;3.70;2.00;;;333.50;2329.60;;;;;;5031658;28;20026;-76
2021/05/15 03:14:22;;;;;;;7.25;2.70;;;333.40;2329.60;;;;;;5023389;28;20057;-75
2021/05/15 03:16:47;;;;;;;6.40;3.30;;;333.40;2329.60;;;;;;5023430;28;20029;-75
2021/05/15 03:19:13;;;;;;;5.25;3.13;;;333.40;2329.60;;;;;;5020429;28;20033;-78
2021/05/15 03:21:39;;;;;;;4.78;2.80;;;333.40;2329.60;;;;;;5012754;28;20045;-75
2021/05/15 03:24:05;;;;;;;5.03;3.13;;;333.50;2329.60;;;;;;5026323;28;20030;-77
2021/05/15 03:26:31;;;;;;;6.03;3.45;;;333.50;2329.60;;;;;;5029230;28;20023;-75
2021/05/15 03:28:56;;;;;;;7.55;3.45;;;333.30;2329.60;;;;;;5025901;28;20048;-75
2021/05/15 03:31:22;;;;;;;7.95;3.30;;;333.20;2329.60;;;;;;5016889;28;20022;-77
2021/05/15 03:33:51;;;;;;;5.40;2.75;;;333.20;2329.60;;;;;;5033956;28;20048;-78
2021/05/15 03:36:17;;;;;;;7.78;3.03;;;333.30;2329.60;;;;;;5033365;28;20030;-78
2021/05/15 03:38:42;;;;;;;6.25;3.10;;;333.30;2329.60;;;;;;5031777;28;20040;-78
2021/05/15 03:41:08;;;;;;;22.50;3.75;;;333.30;2329.60;;;;;;5029451;28;20026;-77
2021/05/15 03:43:37;;;;;;;8.30;3.15;;;333.30;2329.60;;;;;;5031973;28;20049;-77
2021/05/15 03:46:04;;;;;;;6.45;3.20;;;333.40;2329.60;;;;;;5032711;28;20030;-76
2021/05/15 03:48:29;;;;;;;7.28;3.10;;;333.40;2329.60;;;;;;5030893;28;20031;-78
2021/05/15 03:50:55;;;;;;;6.78;2.70;;;333.50;2329.60;;;;;;5030394;28;20018;-78
2021/05/15 03:53:22;;;;;;;3.35;2.40;;;333.40;2329.60;;;;;;5033508;28;20034;-78
2021/05/15 03:55:48;;;;;;;6.68;2.90;;;333.50;2329.60;;;;;;5021290;28;20023;-76
2021/05/15 03:58:14;;;;;;;5.45;2.90;;;333.50;2329.60;;;;;;5022259;28;20549;-78
2021/05/15 04:00:41;;;;;;;5.32;2.90;;;333.50;2329.60;;;;;;5026282;28;20029;-78
2021/05/15 04:03:06;;;;;;;5.28;2.83;;;333.60;2329.60;;;;;;5016350;28;20018;-77
2021/05/15 04:05:32;;;;;;;5.25;2.70;;;333.60;2329.60;;;;;;5029896;28;20080;-77
2021/05/15 04:07:58;;;;;;;6.18;2.80;;;333.70;2329.60;;;;;;5031852;28;20025;-77
2021/05/15 04:10:25;;;;;;;5.50;3.38;;;333.70;2329.60;;;;;;5033243;28;20029;-77
2021/05/15 04:13:00;;;;;;;5.63;2.90;;;358.40;2329.60;;;;;;5028894;28;20031;-78
2021/05/15 04:17:55;;;;;;;17.63;4.55;;;358.50;2329.60;;;;;;5031337;28;20037;-78
2021/05/15 04:20:21;;;;;;;13.32;4.32;;;358.40;2329.60;;;;;;5033334;28;20030;-78
2021/05/15 04:22:47;;;;;;;7.28;3.40;;;358.40;2329.60;;;;;;5032761;28;20364;-77
2021/05/15 04:25:18;;;;;;;7.28;3.28;;;358.50;2329.60;;;;;;5041247;28;20032;-78
2021/05/15 04:27:44;;;;;;;7.05;3.50;;;358.50;2329.60;;;;;;5025320;28;20054;-77
2021/05/15 04:30:13;;;;;;;5.25;3.05;;;358.60;2329.60;;;;;;5034003;28;20496;-75
2021/05/15 04:32:38;;;;;;;8.52;3.70;;;358.60;2329.60;;;;;;5030507;28;20033;-76
2021/05/15 04:35:04;;;;;;;4.97;3.50;;;358.70;2329.60;;;;;;5020627;28;20015;-78
2021/05/15 04:37:33;;;;;;;6.30;3.92;;;358.60;2329.60;;;;;;5024485;28;20508;-78
2021/05/15 04:39:59;;;;;;;9.20;4.65;;;358.80;2329.60;;;;;;5024787;28;20026;-78
2021/05/15 04:42:24;;;;;;;8.57;4.43;;;358.70;2329.60;;;;;;5020254;28;20180;-78
2021/05/15 04:44:50;;;;;;;10.15;4.10;;;358.70;2329.60;;;;;;5026575;28;20029;-77
2021/05/15 04:47:16;;;;;;;7.13;2.90;;;358.80;2329.60;;;;;;5028898;28;20040;-78
2021/05/15 04:49:41;;;;;;;4.97;3.47;;;358.80;2329.60;;;;;;5021904;28;20388;-78
2021/05/15 04:52:10;;;;;;;5.70;3.30;;;358.90;2329.60;;;;;;5027176;28;20053;-77
2021/05/15 04:54:36;;;;;;;5.28;3.53;;;358.90;2329.60;;;;;;5018789;28;20030;-78
2021/05/15 04:57:01;;;;;;;12.05;3.75;;;359.00;2329.60;;;;;;5024046;28;20022;-78
2021/05/15 04:59:27;;;;;;;11.65;4.25;;;359.10;2329.60;;;;;;5023796;28;20619;-75
2021/05/15 05:01:53;;;;;;;10.90;4.22;;;359.20;2329.60;;;;;;5016360;28;20045;-76
2021/05/15 05:04:18;;;;;;;9.70;4.20;;;359.30;2329.60;;;;;;5015287;28;20041;-74
2021/05/15 05:06:44;;;;;;;13.38;5.13;;;384.00;2329.60;;;;;;5010590;28;20391;-76
2021/05/15 05:09:10;;;;;;;11.73;4.75;;;384.20;2329.60;;;;;;5003661;28;20026;-74
2021/05/15 05:11:35;;;;;;;8.05;5.03;;;384.30;2329.60;;;;;;5007975;28;20056;-75
2021/05/15 05:14:01;;;;;;;13.43;5.78;;;;;;;;;;5005664;28;20033;-74
2021/05/15 05:16:27;;;;;;;13.95;5.35;;;;;;;;;;4997593;28;20536;-74
2021/05/15 05:18:53;;;;;;;7.70;4.60;;;;;;;;;;5006453;28;20038;-74
2021/05/15 05:21:21;;;;;;;8.18;5.57;;;;;;;;;;5020092;28;20026;-77
2021/05/15 05:23:47;;;;;;;6.10;5.15;;;;;;;;;;5007998;28;20381;-75
2021/05/15 05:26:13;;;;;;;6.78;4.50;;;;;;;;;;5009020;28;20022;-75
2021/05/15 05:28:42;;;;;;;11.25;4.57;;;;;;;;;;5011345;28;20447;-75
2021/05/15 05:31:08;;;;;;;7.13;4.85;;;;;;;;;;5027628;28;20542;-76
2021/05/15 05:33:37;;;;;;;6.57;3.90;;;;;;;;;;5014169;28;20029;-76
2021/05/15 05:36:30;;;;;;;16.30;4.55;;;;;;;;;;5027176;28;20022;-75
2021/05/15 05:38:57;;;;;;;7.15;4.32;;;;;;;;;;5022809;28;20053;-79
2021/05/15 05:41:24;;;;;;;7.60;3.85;;;;;;;;;;5016931;28;20034;-80
2021/05/15 05:43:53;;;;;;;9.07;4.45;;;;;;;;;;5018176;28;20049;-79
2021/05/15 05:46:20;;;;;;;8.98;4.07;;;;;;;;;;5014777;28;20049;-80
2021/05/15 05:48:49;;;;;;;10.38;4.95;;;;;;;;;;5013627;28;20026;-83
2021/05/15 05:51:18;;;;;;;8.80;4.90;;;;;;;;;;5013207;28;20033;-82
2021/05/15 05:53:44;;;;;;;7.78;5.00;;;;;;;;;;5010030;28;20081;-75
2021/05/15 05:56:10;;;;;;;7.07;4.63;;;;;;;;;;5010185;28;20032;-76
2021/05/15 05:58:37;;;;;;;10.07;5.35;;;;;;;;;;5012058;28;20065;-79
2021/05/15 06:01:03;;;;;;;13.63;5.85;;;;;;;;;;5001367;28;20022;-74
2021/05/15 06:03:29;;;;;;;9.07;4.55;;;;;;;;;;4998334;28;20252;-76
2021/05/15 06:05:55;;;;;;;7.07;4.40;;;;;;;;;;5004214;28;20040;-74
2021/05/15 06:08:21;;;;;;;6.72;4.80;;;;;;;;;;5004332;28;20033;-75
2021/05/15 06:10:47;;;;;;;7.22;4.53;;;;;;;;;;5005826;28;20026;-86
2021/05/15 06:13:14;;;;;;;8.25;4.78;;;;;;;;;;5002437;28;20381;-87
2021/05/15 06:15:41;;;;;;;6.93;4.32;;;;;;;;;;5002637;28;20080;-87
2021/05/15 06:18:09;;;;;;;13.35;5.97;;;;;;;;;;5001611;28;20085;-82
2021/05/15 06:20:35;;;;;;;14.30;5.22;;;;;;;;;;4997572;28;20049;-78
2021/05/15 06:23:01;;;;;;;10.82;4.80;;;;;;;;;;5000504;28;20040;-75
2021/05/15 06:25:28;;;;;;;6.38;4.65;;;;;;;;;;5002727;28;20129;-75
2021/05/15 06:27:54;;;;;;;11.00;5.28;;;;;;;;;;4999807;28;20041;-79
2021/05/15 06:30:20;;;;;;;10.20;5.50;;;;;;;;;;5000571;28;20373;-75
2021/05/15 06:32:46;;;;;;;6.47;5.22;;;;;;;;;;5005004;28;20030;-76
2021/05/15 06:35:12;;;;;;;7.47;5.00;;;;;;;;;;5014384;28;20038;-76
2021/05/15 06:37:40;;;;;;;7.85;4.57;;;;;;;;;;5023529;28;20042;-77
2021/05/15 06:40:13;;;;;;;8.13;5.07;;;;;;;;;;5020126;28;20041;-79
2021/05/15 06:42:40;;;;;;;;;;;;;;;;;;5016564;28;20938;-76
2021/05/15 06:45:07;;;;;;;9.23;4.50;;;;;;;;;;5013476;28;20427;-76
2021/05/15 06:47:33;;;;;;;10.15;4.82;;;;;;;;;;5008046;28;20026;-75
2021/05/15 06:49:59;;;;;;;8.65;4.50;;;;;;;;;;5021492;28;20050;-74
2021/05/15 06:52:25;;;;;;;8.63;4.50;;;;;;;;;;5009991;28;20018;-74
2021/05/15 06:54:51;;;;;;;5.53;4.00;;;;;;;;;;5002519;28;20057;-75
2021/05/15 06:57:19;;;;;;;8.15;4.10;;;;;;;;;;5003961;28;20091;-75
2021/05/15 06:59:45;;;;;;;5.88;3.90;;;;;;;;;;5004460;28;20511;-75
2021/05/15 07:02:11;;;;;;;8.30;4.18;;;;;;;;;;5009856;28;20022;-75
2021/05/15 07:04:37;;;;;;;7.55;3.85;;;;;;;;;;5004410;28;20061;-77
2021/05/15 07:07:03;;;;;;;7.05;3.97;;;;;;;;;;5013078;28;20498;-75
2021/05/15 07:09:29;;;;;;;7.30;4.03;;;;;;;;;;5008142;28;20440;-75
2021/05/15 07:11:55;;;;;;;6.10;3.20;;;;;;;;;;5012225;28;20025;-75
2021/05/15 07:14:22;;;;;;;5.85;3.60;;;;;;;;;;5006294;28;20042;-75
2021/05/15 07:16:48;;;;;;;6.05;3.60;;;;;;;;;;5008831;28;20128;-75
2021/05/15 07:19:15;;;;;;;8.70;4.47;;;;;;;;;;5010205;28;20038;-75
2021/05/15 07:21:41;;;;;;;7.50;4.28;;;;;;;;;;4998350;28;20032;-75
2021/05/15 07:24:07;;;;;;;5.82;4.15;;;;;;;;;;5011266;28;20059;-75
2021/05/15 07:26:33;;;;;;;6.00;3.50;;;;;;;;;;5005658;28;20479;-75
2021/05/15 07:28:59;;;;;;;7.03;4.30;;;;;;;;;;5010039;28;20495;-76
2021/05/15 07:31:25;;;;;;;7.28;4.18;;;;;;;;;;5012694;28;20056;-75
2021/05/15 07:33:51;;;;;;;7.88;4.63;;;;;;;;;;5012546;28;20026;-75
2021/05/15 07:36:17;;;;;;;13.35;5.70;;;;;;;;;;5011932;28;20102;-75
2021/05/15 07:38:44;;;;;;;10.20;4.70;;;;;;;;;;5002539;28;20062;-75
2021/05/15 07:41:12;;;;;;;6.05;4.50;;;;;;;;;;5003094;28;20073;-75
2021/05/15 07:43:38;;;;;;;6.15;4.50;;;;;;;;;;5014183;28;20091;-74
2021/05/15 07:46:04;;;;;;;7.82;4.13;;;;;;;;;;5009578;28;20018;-75
2021/05/15 07:48:40;;;;;;;7.05;3.88;;;;;;;;;;4998601;28;20038;-76
2021/05/15 07:51:14;;;;;;;7.03;4.00;;;;;;;;;;5015591;28;20545;-76
2021/05/15 07:53:40;;;;;;;7.40;3.70;;;;;;;;;;5029380;28;20428;-76
2021/05/15 07:56:06;;;;;;;9.45;4.15;;;;;;;;;;5009379;28;20034;-75
2021/05/15 07:58:33;;;;;;;5.85;3.70;;;;;;;;;;5001135;28;20051;-76
2021/05/15 08:01:00;;;;;;;5.80;4.07;;;;;;;;;;5004419;28;20026;-76
2021/05/15 08:03:26;;;;;;;8.48;4.75;;;;;;;;;;5008352;28;20080;-74
2021/05/15 08:05:52;;;;;;;5.13;4.05;;;;;;;;;;5007184;28;20061;-75
2021/05/15 08:08:19;;;;;;;10.65;3.85;;;;;;;;;;5012508;28;20049;-75
2021/05/15 08:10:45;;;;;;;6.57;3.78;;;;;;;;;;4998083;28;20113;-75
2021/05/15 08:13:11;;;;;;;6.03;4.00;;;;;;;;;;5009782;28;20030;-75
2021/05/15 08:15:37;;;;;;;7.35;4.68;;;;;;;;;;5003623;28;20083;-74
2021/05/15 08:18:03;;;;;;;6.80;4.28;;;;;;;;;;5001925;28;20165;-75
2021/05/15 08:20:29;;;;;;;11.30;4.80;;;;;;;;;;5009761;28;20448;-74
2021/05/15 08:22:55;;;;;;;8.35;4.57;;;;;;;;;;5006725;28;20018;-74
2021/05/15 08:25:22;;;;;;;8.75;3.92;;;;;;;;;;5010145;28;20080;-75
2021/05/15 08:27:53;;;;;;;7.43;5.25;;;;;;;;;;5010317;28;20033;-75
2021/05/15 08:30:21;;;;;;;7.43;4.18;;;;;;;;;;5015494;28;20048;-74
2021/05/15 08:32:49;;;;;;;6.78;3.63;;;;;;;;;;5025797;28;20029;-74
2021/05/15 08:35:16;;;;;;;8.00;3.90;;;;;;;;;;5014113;28;20026;-75
2021/05/15 08:37:42;;;;;;;7.00;4.28;;;;;;;;;;5018477;28;20530;-74
2021/05/15 08:40:09;;;;;;;4.78;3.47;;;;;;;;;;5013231;28;20399;-74
2021/05/15 08:42:40;;;;;;;6.20;3.90;;;;;;;;;;5010950;28;20025;-75
2021/05/15 08:45:07;;;;;;;8.90;4.20;;;;;;;;;;5018859;28;20522;-75
2021/05/15 08:47:36;;;;;;;10.85;4.80;;;;;;;;;;5006736;28;20106;-74
2021/05/15 08:50:07;;;;;;;8.10;4.57;;;;;;;;;;4994132;28;20049;-75
2021/05/15 08:52:33;;;;;;;7.07;4.63;;;;;;;;;;5008787;28;20029;-75
2021/05/15 08:54:59;;;;;;;10.10;5.50;;;;;;;;;;5006912;28;20037;-75
2021/05/15 08:57:25;;;;;;;7.55;4.57;;;;;;;;;;5014127;28;20387;-75
2021/05/15 08:59:51;;;;;;;8.63;3.65;;;;;;;;;;5013305;28;20096;-75
2021/05/15 09:02:18;;;;;;;6.43;3.70;;;;;;;;;;5009364;28;20564;-75
2021/05/15 09:04:45;;;;;;;9.15;4.28;;;;;;;;;;5006970;28;20026;-75
2021/05/15 09:07:11;;;;;;;11.45;4.32;;;;;;;;;;5019894;28;20057;-74
2021/05/15 09:09:37;;;;;;;5.95;4.70;;;;;;;;;;5006523;28;20030;-74
2021/05/15 09:12:04;;;;;;;5.43;4.22;;;;;;;;;;5011769;28;20013;-74
2021/05/15 09:14:30;;;;;;;9.98;5.30;;;;;;;;;;5002972;28;20030;-75
2021/05/15 09:16:57;;;;;;;7.45;4.90;;;;;;;;;;4999583;28;20029;-75
2021/05/15 09:19:24;;;;;;;11.20;5.50;;;;;;;;;;5007981;28;20392;-74
2021/05/15 09:21:59;;;;;;;11.95;5.00;;;;;;;;;;5008014;28;20023;-75
2021/05/15 09:24:45;;;;;;;9.48;5.07;;;;;;;;;;5006244;28;20069;-74
2021/05/15 09:27:12;;;;;;;8.43;4.80;;;;;;;;;;5005557;28;20037;-75
2021/05/15 09:29:42;;;;;;;6.50;3.75;;;;;;;;;;5004395;28;20058;-75
2021/05/15 09:32:08;;;;;;;9.20;4.05;;;;;;;;;;5009647;28;20561;-75
2021/05/15 09:34:44;;;;;;;7.55;4.30;;;;;;;;;;5004365;28;20469;-75
2021/05/15 09:37:10;;;;;;;5.53;4.20;;;;;;;;;;5010072;28;20034;-75
2021/05/15 09:39:36;;;;;;;6.38;3.92;;;;;;;;;;5003791;28;20052;-76
2021/05/15 09:42:03;;;;;;;5.82;3.90;;;;;;;;;;5008437;28;20026;-72
2021/05/15 09:44:30;;;;;;;6.65;4.20;;;;;;;;;;5013107;28;20479;-76
2021/05/15 09:46:57;;;;;;;7.03;4.30;;;;;;;;;;5011221;28;20476;-75
2021/05/15 09:49:26;;;;;;;8.80;4.63;;;;;;;;;;5004755;28;20035;-75
2021/05/15 09:52:05;;;;;;;6.25;4.03;;;;;;;;;;5015891;28;20033;-75
2021/05/15 09:54:43;;;;;;;7.30;3.80;;;;;;;;;;5002353;28;20034;-79
2021/05/15 09:57:11;;;;;;;7.00;4.22;;;;;;;;;;5020986;28;20452;-77
2021/05/15 09:59:39;;;;;;;7.63;3.80;;;;;;;;;;5001885;28;20058;-77
2021/05/15 10:02:06;;;;;;;8.02;3.60;;;;;;;;;;5008361;28;20049;-77
2021/05/15 10:04:33;;;;;;;7.78;3.92;;;;;;;;;;4999577;28;20484;-78
2021/05/15 10:07:00;;;;;;;5.53;4.97;;;;;;;;;;5009024;28;20022;-77
2021/05/15 10:09:42;;;;;;;8.18;3.45;;;;;;;;;;5008297;28;20026;-79
2021/05/15 10:12:09;;;;;;;7.38;2.97;;;;;;;;;;5018725;28;20027;-78
2021/05/15 10:14:36;;;;;;;4.68;3.17;;;;;;;;;;5009160;28;20065;-79
2021/05/15 10:17:02;;;;;;;8.25;3.97;;;;;;;;;;5018350;28;20017;-77
2021/05/15 10:19:29;;;;;;;7.53;4.10;;;;;;;;;;5030993;28;20042;-79
2021/05/15 10:21:56;;;;;;;18.52;7.13;;;;;;;;;;5027241;28;20110;-79
2021/05/15 10:24:23;;;;;;;7.47;3.83;;;;;;;;;;5020758;28;20029;-79
2021/05/15 10:27:12;;;;;;;7.25;3.75;;;;;;;;;;5007494;28;20022;-79
2021/05/15 10:29:47;;;;;;;6.35;3.65;;;;;;;;;;5011905;28;20022;-81
2021/05/15 10:32:16;;;;;;;51.72;17.08;;;;;;;;;;5005414;28;20032;-79
2021/05/15 10:34:46;;;;;;;11.70;5.22;;;;;;;;;;5003582;28;20030;-80
2021/05/15 10:37:19;;;;;;;7.35;3.72;;;;;;;;;;5005988;28;20022;-78
2021/05/15 10:39:50;;;;;;;8.80;3.67;;;;;;;;;;5006836;28;20510;-83
2021/05/15 10:42:34;;;;;;;6.18;3.40;;;;;;;;;;4996925;28;20431;-86
2021/05/15 10:45:01;;;;;;;5.25;2.58;;;;;;;;;;5006344;28;20030;-85
2021/05/15 10:47:28;;;;;;;4.63;2.50;;;;;;;;;;5006336;28;20065;-87
2021/05/15 10:52:58;;;;;;;4.97;2.40;;;;;;;;;;5002606;28;20368;-87
2021/05/15 10:58:51;;;;;;;4.30;2.25;;;;;;;;;;5012443;28;20060;-87
2021/05/15 11:07:40;;;;;;;12.57;5.32;;;;;;;;;;4990083;26;20112;-91
2021/05/15 11:10:11;;;;;;;40.35;16.35;;;;;;;;;;5019790;28;20030;-89
2021/05/15 11:12:42;;;;;;;4.38;2.25;;;;;;;;;;5028620;28;20024;-90
2021/05/15 11:15:10;;;;;;;33.58;8.65;;;;;;;;;;5013131;28;20036;-94
2021/05/15 11:17:36;;;;;;;7.07;3.15;;;;;;;;;;5023598;28;20510;-90
2021/05/15 11:20:09;;;;;;;4.00;2.30;;;;;;;;;;5035391;28;20033;-93
2021/05/15 11:22:43;;;;;;;14.55;5.20;;;;;;;;;;5016984;28;20094;-87
2021/05/15 11:25:09;;;;;;;;;;;;;;;;;;5002714;28;20117;-87
2021/05/15 11:27:43;;;;;;;4.10;2.60;;;;;;;;;;5021943;28;19941;-91
2021/05/15 11:30:14;;;;;;;4.90;2.55;;;;;;;;;;5021763;28;20026;-87
2021/05/15 11:32:40;;;;;;;5.75;2.47;;;;;;;;;;5010980;28;20084;-82
2021/05/15 11:35:07;;;;;;;9.63;2.80;;;;;;;;;;5015164;28;20436;-85
2021/05/15 11:37:33;;;;;;;7.82;2.70;;;;;;;;;;5012992;28;20042;-80
2021/05/15 11:40:00;;;;;;;6.70;3.00;;;;;;;;;;5016240;28;20025;-85
2021/05/15 11:42:30;;;;;;;4.82;2.40;;;;;;;;;;5016365;28;20030;-81
2021/05/15 11:44:56;;;;;;;5.32;2.60;;;;;;;;;;5017370;28;20053;-85
2021/05/15 11:47:23;;;;;;;6.32;3.00;;;;;;;;;;5034927;28;20017;-86
2021/05/15 11:50:01;;;;;;;4.68;2.72;;;;;;;;;;5018674;28;20112;-88
2021/05/15 11:52:34;;;;;;;6.65;2.97;;;;;;;;;;5019580;28;20035;-78
2021/05/15 11:55:00;;;;;;;3.78;2.78;;;;;;;;;;5024913;28;20133;-96
2021/05/15 11:57:27;;;;;;;5.60;3.05;;;;;;;;;;5018267;28;20017;-84
2021/05/15 11:59:54;;;;;;;8.20;3.08;;;;;;;;;;5016146;28;20133;-89
2021/05/15 12:02:21;;;;;;;4.72;2.70;;;;;;;;;;5020264;28;20105;-89
2021/05/15 12:04:47;;;;;;;4.63;2.60;;;;;;;;;;5022553;28;20029;-89
2021/05/15 12:07:15;;;;;;;13.25;2.90;;;;;;;;;;5023747;28;20153;-92
2021/05/15 12:09:41;;;;;;;5.18;2.72;;;;;;;;;;5015862;28;20076;-86
2021/05/15 12:12:09;;;;;;;8.35;2.85;;;;;;;;;;5022030;28;20091;-96
2021/05/15 12:14:38;;;;;;;11.60;3.22;;;;;;;;;;5024146;28;20029;-92
2021/05/15 12:17:24;;;;;;;4.68;2.80;;;;;;;;;;5016613;28;20022;-95
2021/05/15 12:19:54;;;;;;;5.15;2.72;;;;;;;;;;5001002;28;20077;-95
2021/05/15 12:22:24;;;;;;;6.45;2.40;;;;;;;;;;5010450;28;20056;-92
2021/05/15 12:24:50;;;;;;;3.20;2.10;;;;;;;;;;4997642;28;20045;-88
2021/05/15 12:27:20;;;;;;;12.38;2.45;;;;;;;;;;4994811;28;20034;-92
2021/05/15 12:29:58;;;;;;;3.65;2.30;;;;;;;;;;4996675;28;20026;-92
2021/05/15 12:32:24;;;;;;;4.22;2.28;;;;;;;;;;4977622;28;20169;-89
2021/05/15 12:35:11;;;;;;;6.15;2.40;;;;;;;;;;4993078;28;20070;-82
2021/05/15 12:37:45;;;;;;;5.47;2.60;;;;;;;;;;5009961;28;20487;-96
2021/05/15 12:40:20;;;;;;;4.30;2.20;;;;;;;;;;5021268;28;20045;-83
2021/05/15 12:42:49;;;;;;;4.75;2.35;;;;;;;;;;5031756;28;20094;-89
2021/05/15 12:45:35;;;;;;;16.08;2.70;;;;;;;;;;5032986;28;20026;-81
2021/05/15 12:48:01;;;;;;;3.75;2.10;;;;;;;;;;5003670;28;20045;-93
2021/05/15 12:50:28;;;;;;;6.85;2.63;;;;;;;;;;5010657;28;20034;-84
2021/05/15 12:53:11;;;;;;;4.25;2.40;;;;;;;;;;5029018;28;20116;-81
2021/05/15 12:55:49;;;;;;;6.30;2.60;;;;;;;;;;5022394;28;20026;-92
2021/05/15 12:58:24;;;;;;;6.43;2.20;;;;;;;;;;5032407;28;20363;-89
2021/05/15 13:01:15;;;;;;;5.05;2.10;;;;;;;;;;5030683;28;20383;-90
2021/05/15 13:03:48;;;;;;;5.05;2.60;;;;;;;;;;5032162;28;20548;-93
2021/05/15 13:06:15;;;;;;;5.63;2.30;;;;;;;;;;5017531;28;20050;-92
2021/05/15 13:08:41;;;;;;;11.20;3.28;;;;;;;;;;5012987;28;20059;-76
2021/05/15 13:11:17;;;;;;;3.80;2.20;;;;;;;;;;5016541;28;20044;-79
2021/05/15 13:13:44;;;;;;;9.75;2.70;;;;;;;;;;5022072;28;20029;-84
2021/05/15 13:16:10;;;;;;;6.65;2.25;;;;;;;;;;5023034;28;20097;-79
2021/05/15 13:18:36;;;;;;;6.07;2.25;;;;;;;;;;5008207;28;20038;-86
2021/05/15 13:21:03;;;;;;;7.18;2.50;;;;;;;;;;5011259;28;20022;-84
2021/05/15 13:23:29;;;;;;;12.82;3.13;;;;;;;;;;5012375;28;20107;-86
2021/05/15 13:25:58;;;;;;;8.43;3.55;;;;;;;;;;5024692;28;20474;-81
2021/05/15 13:28:24;;;;;;;8.98;4.43;;;;;;;;;;5010802;28;20041;-80
2021/05/15 13:30:52;;;;;;;10.65;5.03;;;;;;;;;;5012493;28;20092;-81
2021/05/15 13:33:18;;;;;;;8.38;4.07;;;;;;;;;;5011502;28;20026;-84
2021/05/15 13:35:44;;;;;;;10.52;3.67;;;;;;;;;;5012547;28;20034;-81
2021/05/15 13:38:10;;;;;;;7.55;3.45;;;;;;;;;;5009464;28;20557;-79
2021/05/15 13:40:40;;;;;;;8.65;3.72;;;;;;;;;;5008409;28;20038;-83
2021/05/15 13:43:06;;;;;;;7.50;3.80;;;;;;;;;;5012251;28;20017;-81
2021/05/15 13:45:33;;;;;;;12.73;3.80;;;;;;;;;;5023486;28;20030;-78
2021/05/15 13:47:59;;;;;;;10.27;4.10;;;;;;;;;;5012424;28;20049;-79
2021/05/15 13:50:29;;;;;;;12.07;4.15;;;;;;;;;;5015141;28;20038;-81
2021/05/15 13:52:58;;;;;;;7.60;3.97;;;;;;;;;;5021050;28;20026;-80
2021/05/15 13:55:24;;;;;;;7.10;4.20;;;;;;;;;;5027333;28;20052;-85
2021/05/15 13:57:51;;;;;;;10.88;4.38;;;;;;;;;;5022773;28;20037;-85
2021/05/15 14:00:17;;;;;;;8.02;3.80;;;;;;;;;;5015504;28;20077;-83
2021/05/15 14:02:43;;;;;;;9.20;4.07;;;;;;;;;;5017354;28;20030;-86
2021/05/15 14:05:13;;;;;;;7.90;3.88;;;;;;;;;;5017842;28;20461;-84
2021/05/15 14:07:41;;;;;;;9.00;3.65;;;;;;;;;;5012534;28;20080;-85
2021/05/15 14:10:09;;;;;;;8.68;3.70;;;;;;;;;;5022493;28;20056;-86
2021/05/15 14:12:35;;;;;;;10.02;3.75;;;;;;;;;;5020753;28;20034;-85
2021/05/15 14:15:04;;;;;;;7.47;3.20;;;;;;;;;;5024478;28;20026;-84
2021/05/15 14:17:30;;;;;;;8.38;3.42;;;;;;;;;;5024564;28;20058;-93
2021/05/15 14:19:56;;;;;;;7.43;3.72;;;;;;;;;;5018308;28;20091;-86
2021/05/15 14:22:22;;;;;;;14.75;4.35;;;;;;;;;;5012841;28;20026;-88
2021/05/15 14:24:48;;;;;;;9.77;4.55;;;;;;;;;;5013166;28;20101;-86
2021/05/15 14:27:14;;;;;;;9.55;4.45;;;;;;;;;;5012477;28;20030;-88
2021/05/15 14:29:43;;;;;;;11.07;4.90;;;;;;;;;;5010015;28;20030;-83